sensor_id;sensor_type;location;lat;lon;timestamp;pressure;altitude;pressure_sealevel;temperature;humidity
21401;BME280;18038;50.166;18.908;2023-12-29T00:01:45;97938.38;;;6.18;76.77
21401;BME280;18038;50.166;18.908;2023-12-29T00:04:52;97935.59;;;6.19;76.96
21401;BME280;18038;50.166;18.908;2023-12-29T00:08:03;97935.22;;;6.14;76.72
21401;BME280;18038;50.166;18.908;2023-12-29T00:11:17;97932.31;;;6.25;75.89
21401;BME280;18038;50.166;18.908;2023-12-29T00:14:25;97923.22;;;6.28;75.64
21401;BME280;18038;50.166;18.908;2023-12-29T00:17:33;97918.94;;;6.27;75.68
21401;BME280;18038;50.166;18.908;2023-12-29T00:20:44;97921.03;;;6.23;76.20
21401;BME280;18038;50.166;18.908;2023-12-29T00:24:11;97912.28;;;6.23;76.25
21401;BME280;18038;50.166;18.908;2023-12-29T00:27:18;97903.22;;;6.25;76.37
21401;BME280;18038;50.166;18.908;2023-12-29T00:30:26;97894.09;;;6.20;76.47
21401;BME280;18038;50.166;18.908;2023-12-29T00:33:54;97897.56;;;6.20;76.55
21401;BME280;18038;50.166;18.908;2023-12-29T00:37:02;97895.59;;;6.22;76.58
21401;BME280;18038;50.166;18.908;2023-12-29T00:40:14;97897.75;;;6.19;76.55
21401;BME280;18038;50.166;18.908;2023-12-29T00:43:21;97907.19;;;6.21;76.83
21401;BME280;18038;50.166;18.908;2023-12-29T00:46:29;97905.00;;;6.17;76.62
21401;BME280;18038;50.166;18.908;2023-12-29T00:49:38;97909.97;;;6.20;77.03
21401;BME280;18038;50.166;18.908;2023-12-29T00:52:47;97892.28;;;6.20;76.69
21401;BME280;18038;50.166;18.908;2023-12-29T00:55:57;97908.34;;;6.27;76.87
21401;BME280;18038;50.166;18.908;2023-12-29T00:59:06;97898.91;;;6.24;77.04
21401;BME280;18038;50.166;18.908;2023-12-29T01:02:13;97907.69;;;6.33;76.86
21401;BME280;18038;50.166;18.908;2023-12-29T01:05:21;97903.09;;;6.35;76.62
21401;BME280;18038;50.166;18.908;2023-12-29T01:08:29;97898.28;;;6.31;77.31
21401;BME280;18038;50.166;18.908;2023-12-29T01:11:41;97896.09;;;6.26;77.81
21401;BME280;18038;50.166;18.908;2023-12-29T01:14:48;97901.38;;;6.26;77.83
21401;BME280;18038;50.166;18.908;2023-12-29T01:17:56;97898.75;;;6.26;77.95
21401;BME280;18038;50.166;18.908;2023-12-29T01:21:11;97894.41;;;6.17;77.91
21401;BME280;18038;50.166;18.908;2023-12-29T01:24:19;97903.00;;;6.11;78.81
21401;BME280;18038;50.166;18.908;2023-12-29T01:27:47;97897.34;;;6.05;78.68
21401;BME280;18038;50.166;18.908;2023-12-29T01:30:56;97895.81;;;5.95;78.19
21401;BME280;18038;50.166;18.908;2023-12-29T01:34:04;97878.75;;;5.89;77.75
21401;BME280;18038;50.166;18.908;2023-12-29T01:37:16;97871.50;;;5.91;77.72
21401;BME280;18038;50.166;18.908;2023-12-29T01:40:23;97885.72;;;5.90;77.69
21401;BME280;18038;50.166;18.908;2023-12-29T01:47:29;97869.16;;;5.88;77.53
21401;BME280;18038;50.166;18.908;2023-12-29T01:50:38;97859.41;;;5.89;77.11
21401;BME280;18038;50.166;18.908;2023-12-29T01:53:46;97866.53;;;5.88;76.63
21401;BME280;18038;50.166;18.908;2023-12-29T01:56:59;97854.31;;;5.87;76.29
21401;BME280;18038;50.166;18.908;2023-12-29T02:00:13;97846.03;;;5.82;76.15
21401;BME280;18038;50.166;18.908;2023-12-29T02:03:22;97845.03;;;5.83;75.95
21401;BME280;18038;50.166;18.908;2023-12-29T02:06:33;97859.22;;;5.82;75.10
21401;BME280;18038;50.166;18.908;2023-12-29T02:09:42;97849.03;;;5.87;74.67
21401;BME280;18038;50.166;18.908;2023-12-29T02:12:52;97840.28;;;5.95;74.04
21401;BME280;18038;50.166;18.908;2023-12-29T02:16:20;97843.28;;;6.00;73.94
21401;BME280;18038;50.166;18.908;2023-12-29T02:19:37;97840.47;;;6.01;73.74
21401;BME280;18038;50.166;18.908;2023-12-29T02:22:49;97852.72;;;6.02;73.81
21401;BME280;18038;50.166;18.908;2023-12-29T02:26:08;97847.44;;;6.02;73.88
21401;BME280;18038;50.166;18.908;2023-12-29T02:29:25;97843.78;;;6.03;73.83
21401;BME280;18038;50.166;18.908;2023-12-29T02:32:41;97854.88;;;6.07;73.47
21401;BME280;18038;50.166;18.908;2023-12-29T02:35:52;97837.69;;;6.03;73.55
21401;BME280;18038;50.166;18.908;2023-12-29T02:39:03;97834.50;;;5.99;73.37
21401;BME280;18038;50.166;18.908;2023-12-29T02:42:14;97837.81;;;5.93;72.92
21401;BME280;18038;50.166;18.908;2023-12-29T02:45:21;97829.03;;;5.93;72.71
21401;BME280;18038;50.166;18.908;2023-12-29T02:48:31;97832.16;;;5.88;72.41
21401;BME280;18038;50.166;18.908;2023-12-29T02:51:42;97793.44;;;5.71;72.28
21401;BME280;18038;50.166;18.908;2023-12-29T02:54:52;97816.47;;;5.87;72.14
21401;BME280;18038;50.166;18.908;2023-12-29T02:58:02;97813.31;;;5.83;72.47
21401;BME280;18038;50.166;18.908;2023-12-29T03:01:28;97805.03;;;5.78;72.32
21401;BME280;18038;50.166;18.908;2023-12-29T03:04:35;97802.72;;;5.83;71.55
21401;BME280;18038;50.166;18.908;2023-12-29T03:07:43;97796.47;;;5.84;70.92
21401;BME280;18038;50.166;18.908;2023-12-29T03:10:51;97797.28;;;5.84;70.45
21401;BME280;18038;50.166;18.908;2023-12-29T03:14:11;97800.75;;;5.85;70.20
21401;BME280;18038;50.166;18.908;2023-12-29T03:17:18;97796.16;;;5.87;70.10
21401;BME280;18038;50.166;18.908;2023-12-29T03:20:26;97801.75;;;5.84;69.73
21401;BME280;18038;50.166;18.908;2023-12-29T03:23:47;97792.84;;;5.85;69.86
21401;BME280;18038;50.166;18.908;2023-12-29T03:26:55;97795.13;;;5.80;69.49
21401;BME280;18038;50.166;18.908;2023-12-29T03:30:07;97790.34;;;5.83;69.35
21401;BME280;18038;50.166;18.908;2023-12-29T03:33:16;97791.47;;;5.81;69.40
21401;BME280;18038;50.166;18.908;2023-12-29T03:36:23;97780.22;;;5.71;69.63
21401;BME280;18038;50.166;18.908;2023-12-29T03:39:31;97794.63;;;5.76;69.63
21401;BME280;18038;50.166;18.908;2023-12-29T03:42:42;97786.16;;;5.73;69.90
21401;BME280;18038;50.166;18.908;2023-12-29T03:45:53;97780.53;;;5.68;69.62
21401;BME280;18038;50.166;18.908;2023-12-29T03:49:00;97795.75;;;5.66;69.85
21401;BME280;18038;50.166;18.908;2023-12-29T03:52:08;97786.66;;;5.68;69.42
21401;BME280;18038;50.166;18.908;2023-12-29T03:55:23;97784.50;;;5.63;69.37
21401;BME280;18038;50.166;18.908;2023-12-29T03:58:36;97783.84;;;5.70;69.37
21401;BME280;18038;50.166;18.908;2023-12-29T04:01:47;97776.38;;;5.65;69.43
21401;BME280;18038;50.166;18.908;2023-12-29T04:04:55;97770.28;;;5.65;69.28
21401;BME280;18038;50.166;18.908;2023-12-29T04:08:06;97762.34;;;5.65;69.04
21401;BME280;18038;50.166;18.908;2023-12-29T04:11:14;97759.25;;;5.69;68.98
21401;BME280;18038;50.166;18.908;2023-12-29T04:14:21;97767.16;;;5.69;68.98
21401;BME280;18038;50.166;18.908;2023-12-29T04:17:49;97764.56;;;5.77;68.98
21401;BME280;18038;50.166;18.908;2023-12-29T04:20:56;97768.38;;;5.83;68.58
21401;BME280;18038;50.166;18.908;2023-12-29T04:24:05;97769.53;;;5.89;68.39
21401;BME280;18038;50.166;18.908;2023-12-29T04:27:14;97774.03;;;5.96;67.80
21401;BME280;18038;50.166;18.908;2023-12-29T04:30:34;97786.28;;;6.05;67.13
21401;BME280;18038;50.166;18.908;2023-12-29T04:33:49;97777.38;;;6.15;67.39
21401;BME280;18038;50.166;18.908;2023-12-29T04:36:57;97774.91;;;6.13;67.24
21401;BME280;18038;50.166;18.908;2023-12-29T04:40:07;97751.59;;;6.17;67.52
21401;BME280;18038;50.166;18.908;2023-12-29T04:43:16;97757.38;;;6.20;67.70
21401;BME280;18038;50.166;18.908;2023-12-29T04:46:39;97767.31;;;6.18;67.73
21401;BME280;18038;50.166;18.908;2023-12-29T04:49:56;97765.19;;;6.22;67.89
21401;BME280;18038;50.166;18.908;2023-12-29T04:53:05;97773.09;;;6.22;68.55
21401;BME280;18038;50.166;18.908;2023-12-29T04:56:13;97767.00;;;6.21;68.64
21401;BME280;18038;50.166;18.908;2023-12-29T04:59:20;97749.97;;;6.24;69.00
21401;BME280;18038;50.166;18.908;2023-12-29T05:02:35;97757.25;;;6.30;69.42
21401;BME280;18038;50.166;18.908;2023-12-29T05:05:49;97757.59;;;6.27;70.28
21401;BME280;18038;50.166;18.908;2023-12-29T05:09:04;97748.97;;;6.25;71.12
21401;BME280;18038;50.166;18.908;2023-12-29T05:12:15;97746.00;;;6.28;71.40
21401;BME280;18038;50.166;18.908;2023-12-29T05:15:23;97745.66;;;6.31;72.22
21401;BME280;18038;50.166;18.908;2023-12-29T05:18:32;97754.94;;;6.35;72.54
21401;BME280;18038;50.166;18.908;2023-12-29T05:21:43;97757.75;;;6.34;72.74
21401;BME280;18038;50.166;18.908;2023-12-29T05:25:05;97737.72;;;6.31;73.13
21401;BME280;18038;50.166;18.908;2023-12-29T05:28:22;97747.50;;;6.31;73.19
21401;BME280;18038;50.166;18.908;2023-12-29T05:31:30;97748.50;;;6.29;73.17
21401;BME280;18038;50.166;18.908;2023-12-29T05:34:39;97743.34;;;6.28;73.31
21401;BME280;18038;50.166;18.908;2023-12-29T05:37:49;97747.34;;;6.24;73.83
21401;BME280;18038;50.166;18.908;2023-12-29T05:40:59;97749.31;;;6.30;73.99
21401;BME280;18038;50.166;18.908;2023-12-29T05:44:11;97750.66;;;6.34;74.40
21401;BME280;18038;50.166;18.908;2023-12-29T05:47:27;97754.63;;;6.38;74.41
21401;BME280;18038;50.166;18.908;2023-12-29T05:50:37;97750.81;;;6.41;74.76
21401;BME280;18038;50.166;18.908;2023-12-29T05:53:47;97751.63;;;6.41;74.79
21401;BME280;18038;50.166;18.908;2023-12-29T05:57:09;97756.94;;;6.41;74.86
21401;BME280;18038;50.166;18.908;2023-12-29T06:00:18;97766.19;;;6.45;74.89
21401;BME280;18038;50.166;18.908;2023-12-29T06:03:25;97748.00;;;6.42;74.53
21401;BME280;18038;50.166;18.908;2023-12-29T06:06:33;97744.69;;;6.40;74.63
21401;BME280;18038;50.166;18.908;2023-12-29T06:09:43;97749.66;;;6.43;74.32
21401;BME280;18038;50.166;18.908;2023-12-29T06:12:53;97739.91;;;6.44;74.28
21401;BME280;18038;50.166;18.908;2023-12-29T06:16:00;97741.06;;;6.41;74.79
21401;BME280;18038;50.166;18.908;2023-12-29T06:19:10;97746.19;;;6.35;75.27
21401;BME280;18038;50.166;18.908;2023-12-29T06:22:39;97749.31;;;6.30;75.07
21401;BME280;18038;50.166;18.908;2023-12-29T06:25:50;97757.25;;;6.22;74.92
21401;BME280;18038;50.166;18.908;2023-12-29T06:28:57;97748.63;;;6.20;75.12
21401;BME280;18038;50.166;18.908;2023-12-29T06:32:06;97747.63;;;6.13;75.32
21401;BME280;18038;50.166;18.908;2023-12-29T06:35:13;97745.97;;;6.12;75.02
21401;BME280;18038;50.166;18.908;2023-12-29T06:38:21;97734.41;;;6.13;74.78
21401;BME280;18038;50.166;18.908;2023-12-29T06:41:31;97735.41;;;6.12;74.81
21401;BME280;18038;50.166;18.908;2023-12-29T06:44:41;97735.22;;;6.05;75.19
21401;BME280;18038;50.166;18.908;2023-12-29T06:47:48;97733.91;;;6.01;74.87
21401;BME280;18038;50.166;18.908;2023-12-29T06:50:56;97738.38;;;6.00;74.77
21401;BME280;18038;50.166;18.908;2023-12-29T06:54:03;97740.00;;;6.01;74.88
21401;BME280;18038;50.166;18.908;2023-12-29T06:57:14;97757.22;;;6.05;74.89
21401;BME280;18038;50.166;18.908;2023-12-29T07:00:23;97750.44;;;6.11;74.46
21401;BME280;18038;50.166;18.908;2023-12-29T07:03:31;97757.56;;;6.11;74.63
21401;BME280;18038;50.166;18.908;2023-12-29T07:06:39;97750.94;;;6.15;74.29
21401;BME280;18038;50.166;18.908;2023-12-29T07:10:01;97758.53;;;6.18;74.08
21401;BME280;18038;50.166;18.908;2023-12-29T07:13:19;97751.63;;;6.25;73.39
21401;BME280;18038;50.166;18.908;2023-12-29T07:16:28;97760.56;;;6.32;73.70
21401;BME280;18038;50.166;18.908;2023-12-29T07:19:42;97748.16;;;6.33;73.30
21401;BME280;18038;50.166;18.908;2023-12-29T07:22:50;97766.53;;;6.34;73.57
21401;BME280;18038;50.166;18.908;2023-12-29T07:25:58;97769.47;;;6.39;73.55
21401;BME280;18038;50.166;18.908;2023-12-29T07:29:09;97767.69;;;6.48;72.50
21401;BME280;18038;50.166;18.908;2023-12-29T07:32:16;97763.91;;;6.59;72.21
21401;BME280;18038;50.166;18.908;2023-12-29T07:35:24;97764.91;;;6.66;72.24
21401;BME280;18038;50.166;18.908;2023-12-29T07:38:32;97773.31;;;6.78;71.44
21401;BME280;18038;50.166;18.908;2023-12-29T07:41:40;97765.84;;;6.89;71.15
21401;BME280;18038;50.166;18.908;2023-12-29T07:44:50;97760.72;;;6.96;71.02
21401;BME280;18038;50.166;18.908;2023-12-29T07:48:02;97756.44;;;7.03;70.77
21401;BME280;18038;50.166;18.908;2023-12-29T07:51:13;97745.00;;;7.11;70.49
21401;BME280;18038;50.166;18.908;2023-12-29T07:54:22;97746.66;;;7.20;70.34
21401;BME280;18038;50.166;18.908;2023-12-29T07:57:29;97755.06;;;7.32;70.13
21401;BME280;18038;50.166;18.908;2023-12-29T08:00:46;97759.81;;;7.45;69.59
21401;BME280;18038;50.166;18.908;2023-12-29T08:03:54;97770.72;;;7.58;69.39
21401;BME280;18038;50.166;18.908;2023-12-29T08:07:08;97775.31;;;7.72;68.45
21401;BME280;18038;50.166;18.908;2023-12-29T08:10:15;97781.88;;;7.85;68.33
21401;BME280;18038;50.166;18.908;2023-12-29T08:13:23;97771.22;;;7.93;68.09
21401;BME280;18038;50.166;18.908;2023-12-29T08:16:37;97768.81;;;8.14;66.99
21401;BME280;18038;50.166;18.908;2023-12-29T08:19:47;97764.63;;;8.43;65.93
21401;BME280;18038;50.166;18.908;2023-12-29T08:22:54;97764.72;;;8.58;65.26
21401;BME280;18038;50.166;18.908;2023-12-29T08:26:02;97768.41;;;8.71;64.28
21401;BME280;18038;50.166;18.908;2023-12-29T08:29:16;97773.13;;;8.84;64.33
21401;BME280;18038;50.166;18.908;2023-12-29T08:32:48;97777.84;;;8.97;63.28
21401;BME280;18038;50.166;18.908;2023-12-29T08:36:04;97786.41;;;9.07;63.09
21401;BME280;18038;50.166;18.908;2023-12-29T08:39:13;97791.19;;;9.27;62.48
21401;BME280;18038;50.166;18.908;2023-12-29T08:42:21;97788.00;;;9.46;61.98
21401;BME280;18038;50.166;18.908;2023-12-29T08:45:32;97783.78;;;9.37;61.88
21401;BME280;18038;50.166;18.908;2023-12-29T08:48:42;97781.38;;;9.12;62.90
21401;BME280;18038;50.166;18.908;2023-12-29T08:51:52;97787.38;;;9.06;62.83
21401;BME280;18038;50.166;18.908;2023-12-29T08:55:04;97789.34;;;9.12;63.15
21401;BME280;18038;50.166;18.908;2023-12-29T08:58:13;97783.50;;;9.32;62.52
21401;BME280;18038;50.166;18.908;2023-12-29T09:01:20;97780.69;;;9.63;61.50
21401;BME280;18038;50.166;18.908;2023-12-29T09:04:37;97787.00;;;9.77;60.87
21401;BME280;18038;50.166;18.908;2023-12-29T09:07:45;97782.31;;;9.64;61.73
21401;BME280;18038;50.166;18.908;2023-12-29T09:10:53;97778.94;;;9.85;60.81
21401;BME280;18038;50.166;18.908;2023-12-29T09:14:00;97787.28;;;9.82;60.96
21401;BME280;18038;50.166;18.908;2023-12-29T09:17:08;97783.03;;;10.02;60.22
21401;BME280;18038;50.166;18.908;2023-12-29T09:20:24;97787.22;;;10.27;59.80
21401;BME280;18038;50.166;18.908;2023-12-29T09:23:36;97774.72;;;10.49;59.12
21401;BME280;18038;50.166;18.908;2023-12-29T09:26:44;97770.44;;;10.48;58.33
21401;BME280;18038;50.166;18.908;2023-12-29T09:29:52;97764.59;;;10.59;58.85
21401;BME280;18038;50.166;18.908;2023-12-29T09:33:15;97759.28;;;10.59;58.18
21401;BME280;18038;50.166;18.908;2023-12-29T09:36:26;97752.47;;;10.35;59.14
21401;BME280;18038;50.166;18.908;2023-12-29T09:39:34;97758.75;;;10.27;59.68
21401;BME280;18038;50.166;18.908;2023-12-29T09:42:43;97758.97;;;10.11;60.22
21401;BME280;18038;50.166;18.908;2023-12-29T09:45:52;97754.75;;;10.01;60.84
21401;BME280;18038;50.166;18.908;2023-12-29T09:49:03;97756.53;;;9.94;60.70
21401;BME280;18038;50.166;18.908;2023-12-29T09:52:16;97756.06;;;9.91;61.12
21401;BME280;18038;50.166;18.908;2023-12-29T09:55:27;97744.88;;;9.95;60.74
21401;BME280;18038;50.166;18.908;2023-12-29T09:58:35;97746.63;;;9.88;60.59
21401;BME280;18038;50.166;18.908;2023-12-29T10:01:45;97742.09;;;10.03;60.64
21401;BME280;18038;50.166;18.908;2023-12-29T10:04:54;97727.88;;;10.33;60.33
21401;BME280;18038;50.166;18.908;2023-12-29T10:08:10;97734.75;;;10.42;59.31
21401;BME280;18038;50.166;18.908;2023-12-29T10:11:28;97733.34;;;10.67;59.51
21401;BME280;18038;50.166;18.908;2023-12-29T10:14:48;97740.00;;;10.78;58.77
21401;BME280;18038;50.166;18.908;2023-12-29T10:18:14;97729.72;;;10.54;59.19
21401;BME280;18038;50.166;18.908;2023-12-29T10:21:36;97726.88;;;10.55;58.93
21401;BME280;18038;50.166;18.908;2023-12-29T10:24:57;97719.91;;;10.33;59.24
21401;BME280;18038;50.166;18.908;2023-12-29T10:28:22;97710.59;;;10.07;60.25
21401;BME280;18038;50.166;18.908;2023-12-29T10:31:30;97719.34;;;10.01;60.77
21401;BME280;18038;50.166;18.908;2023-12-29T10:34:38;97720.94;;;9.95;61.02
21401;BME280;18038;50.166;18.908;2023-12-29T10:37:46;97720.78;;;9.82;61.83
21401;BME280;18038;50.166;18.908;2023-12-29T10:41:16;97715.34;;;9.90;61.57
21401;BME280;18038;50.166;18.908;2023-12-29T10:44:24;97716.53;;;9.88;61.44
21401;BME280;18038;50.166;18.908;2023-12-29T10:47:32;97721.81;;;9.66;62.30
21401;BME280;18038;50.166;18.908;2023-12-29T10:50:43;97713.28;;;9.71;62.35
21401;BME280;18038;50.166;18.908;2023-12-29T10:53:55;97710.09;;;9.46;62.70
21401;BME280;18038;50.166;18.908;2023-12-29T10:57:07;97693.78;;;9.34;62.87
21401;BME280;18038;50.166;18.908;2023-12-29T11:00:29;97677.84;;;9.34;62.95
21401;BME280;18038;50.166;18.908;2023-12-29T11:03:40;97677.19;;;9.47;62.81
21401;BME280;18038;50.166;18.908;2023-12-29T11:06:54;97670.97;;;9.40;63.16
21401;BME280;18038;50.166;18.908;2023-12-29T11:10:07;97666.53;;;9.62;62.71
21401;BME280;18038;50.166;18.908;2023-12-29T11:13:20;97687.63;;;9.63;62.40
21401;BME280;18038;50.166;18.908;2023-12-29T11:16:34;97678.19;;;9.61;62.12
21401;BME280;18038;50.166;18.908;2023-12-29T11:19:46;97694.66;;;9.71;62.20
21401;BME280;18038;50.166;18.908;2023-12-29T11:22:53;97689.25;;;9.64;61.95
21401;BME280;18038;50.166;18.908;2023-12-29T11:26:03;97681.25;;;9.79;61.91
21401;BME280;18038;50.166;18.908;2023-12-29T11:29:15;97678.38;;;9.80;61.23
21401;BME280;18038;50.166;18.908;2023-12-29T11:32:30;97678.91;;;9.91;60.92
21401;BME280;18038;50.166;18.908;2023-12-29T11:35:51;97669.63;;;10.01;60.51
21401;BME280;18038;50.166;18.908;2023-12-29T11:39:12;97683.13;;;10.21;60.46
21401;BME280;18038;50.166;18.908;2023-12-29T11:42:33;97687.38;;;10.16;59.80
21401;BME280;18038;50.166;18.908;2023-12-29T11:45:50;97699.03;;;10.15;59.96
21401;BME280;18038;50.166;18.908;2023-12-29T11:49:10;97692.50;;;10.17;60.59
21401;BME280;18038;50.166;18.908;2023-12-29T11:52:32;97689.53;;;10.27;59.82
21401;BME280;18038;50.166;18.908;2023-12-29T11:56:15;97685.84;;;10.28;59.74
21401;BME280;18038;50.166;18.908;2023-12-29T11:59:29;97676.75;;;10.16;59.95
21401;BME280;18038;50.166;18.908;2023-12-29T12:02:44;97676.59;;;10.02;60.27
21401;BME280;18038;50.166;18.908;2023-12-29T12:05:56;97666.59;;;10.05;60.51
21401;BME280;18038;50.166;18.908;2023-12-29T12:09:21;97669.84;;;9.85;60.58
21401;BME280;18038;50.166;18.908;2023-12-29T12:12:40;97687.53;;;9.93;60.75
21401;BME280;18038;50.166;18.908;2023-12-29T12:15:48;97681.19;;;9.94;60.84
21401;BME280;18038;50.166;18.908;2023-12-29T12:18:59;97691.78;;;9.87;60.62
21401;BME280;18038;50.166;18.908;2023-12-29T12:22:10;97686.09;;;9.75;60.52
21401;BME280;18038;50.166;18.908;2023-12-29T12:25:19;97680.91;;;9.67;61.28
21401;BME280;18038;50.166;18.908;2023-12-29T12:28:28;97677.53;;;9.58;61.13
21401;BME280;18038;50.166;18.908;2023-12-29T12:31:51;97671.28;;;9.51;61.13
21401;BME280;18038;50.166;18.908;2023-12-29T12:35:03;97672.97;;;9.52;61.41
21401;BME280;18038;50.166;18.908;2023-12-29T12:38:30;97677.63;;;9.50;61.19
21401;BME280;18038;50.166;18.908;2023-12-29T12:41:45;97676.56;;;9.45;61.68
21401;BME280;18038;50.166;18.908;2023-12-29T12:44:56;97673.88;;;9.45;61.55
21401;BME280;18038;50.166;18.908;2023-12-29T12:48:23;97675.47;;;9.39;61.84
21401;BME280;18038;50.166;18.908;2023-12-29T12:51:45;97674.44;;;9.40;61.94
21401;BME280;18038;50.166;18.908;2023-12-29T12:54:54;97672.16;;;9.37;62.44
21401;BME280;18038;50.166;18.908;2023-12-29T12:58:21;97669.88;;;9.34;62.13
21401;BME280;18038;50.166;18.908;2023-12-29T13:01:41;97666.56;;;9.32;62.17
21401;BME280;18038;50.166;18.908;2023-12-29T13:04:50;97657.66;;;9.25;62.48
21401;BME280;18038;50.166;18.908;2023-12-29T13:08:06;97655.13;;;9.17;62.93
21401;BME280;18038;50.166;18.908;2023-12-29T13:11:44;97651.47;;;9.18;63.07
21401;BME280;18038;50.166;18.908;2023-12-29T13:14:52;97656.22;;;9.07;63.21
21401;BME280;18038;50.166;18.908;2023-12-29T13:18:00;97655.91;;;9.02;63.22
21401;BME280;18038;50.166;18.908;2023-12-29T13:21:17;97652.97;;;8.97;63.68
21401;BME280;18038;50.166;18.908;2023-12-29T13:24:32;97659.94;;;8.98;64.04
21401;BME280;18038;50.166;18.908;2023-12-29T13:27:40;97672.59;;;8.96;63.87
21401;BME280;18038;50.166;18.908;2023-12-29T13:30:50;97664.34;;;9.06;63.86
21401;BME280;18038;50.166;18.908;2023-12-29T13:34:14;97675.50;;;9.01;63.77
21401;BME280;18038;50.166;18.908;2023-12-29T13:37:36;97664.25;;;8.99;63.62
21401;BME280;18038;50.166;18.908;2023-12-29T13:41:00;97667.34;;;8.88;64.06
21401;BME280;18038;50.166;18.908;2023-12-29T13:44:15;97658.19;;;8.76;64.81
21401;BME280;18038;50.166;18.908;2023-12-29T13:47:26;97654.75;;;8.67;64.69
21401;BME280;18038;50.166;18.908;2023-12-29T13:50:47;97670.91;;;8.65;64.78
21401;BME280;18038;50.166;18.908;2023-12-29T13:53:58;97661.63;;;8.61;64.96
21401;BME280;18038;50.166;18.908;2023-12-29T13:57:10;97672.25;;;8.61;64.91
21401;BME280;18038;50.166;18.908;2023-12-29T14:00:22;97660.00;;;8.60;64.63
21401;BME280;18038;50.166;18.908;2023-12-29T14:03:42;97668.97;;;8.59;64.71
21401;BME280;18038;50.166;18.908;2023-12-29T14:06:59;97666.72;;;8.48;65.54
21401;BME280;18038;50.166;18.908;2023-12-29T14:10:09;97662.78;;;8.44;65.66
21401;BME280;18038;50.166;18.908;2023-12-29T14:13:20;97659.50;;;8.42;65.35
21401;BME280;18038;50.166;18.908;2023-12-29T14:16:29;97674.09;;;8.38;65.64
21401;BME280;18038;50.166;18.908;2023-12-29T14:19:38;97673.78;;;8.41;65.87
21401;BME280;18038;50.166;18.908;2023-12-29T14:22:46;97681.59;;;8.34;66.23
21401;BME280;18038;50.166;18.908;2023-12-29T14:26:02;97686.09;;;8.34;66.11
21401;BME280;18038;50.166;18.908;2023-12-29T14:29:13;97691.41;;;8.34;66.13
21401;BME280;18038;50.166;18.908;2023-12-29T14:32:20;97695.41;;;8.30;66.40
21401;BME280;18038;50.166;18.908;2023-12-29T14:35:29;97697.06;;;8.31;66.12
21401;BME280;18038;50.166;18.908;2023-12-29T14:38:36;97693.81;;;8.20;66.53
21401;BME280;18038;50.166;18.908;2023-12-29T14:41:45;97708.44;;;8.16;66.57
21401;BME280;18038;50.166;18.908;2023-12-29T14:45:06;97713.09;;;8.14;66.90
21401;BME280;18038;50.166;18.908;2023-12-29T14:48:15;97703.69;;;8.12;66.96
21401;BME280;18038;50.166;18.908;2023-12-29T14:51:24;97699.34;;;8.11;66.98
21401;BME280;18038;50.166;18.908;2023-12-29T14:54:37;97696.03;;;8.09;66.73
21401;BME280;18038;50.166;18.908;2023-12-29T14:57:45;97705.19;;;8.06;67.44
21401;BME280;18038;50.166;18.908;2023-12-29T15:00:56;97706.53;;;8.02;67.06
21401;BME280;18038;50.166;18.908;2023-12-29T15:04:04;97696.09;;;8.00;67.46
21401;BME280;18038;50.166;18.908;2023-12-29T15:07:13;97703.88;;;8.02;67.49
21401;BME280;18038;50.166;18.908;2023-12-29T15:10:21;97699.41;;;8.02;67.64
21401;BME280;18038;50.166;18.908;2023-12-29T15:13:29;97705.53;;;8.03;67.73
21401;BME280;18038;50.166;18.908;2023-12-29T15:16:39;97693.75;;;8.05;67.41
21401;BME280;18038;50.166;18.908;2023-12-29T15:19:47;97698.44;;;8.03;67.67
21401;BME280;18038;50.166;18.908;2023-12-29T15:22:55;97696.09;;;8.00;67.75
21401;BME280;18038;50.166;18.908;2023-12-29T15:26:05;97686.66;;;7.98;67.93
21401;BME280;18038;50.166;18.908;2023-12-29T15:29:13;97676.09;;;7.90;68.61
21401;BME280;18038;50.166;18.908;2023-12-29T15:32:24;97679.41;;;7.92;68.65
21401;BME280;18038;50.166;18.908;2023-12-29T15:35:31;97673.66;;;7.88;68.72
21401;BME280;18038;50.166;18.908;2023-12-29T15:38:39;97676.47;;;7.87;68.46
21401;BME280;18038;50.166;18.908;2023-12-29T15:41:46;97687.06;;;7.87;68.66
21401;BME280;18038;50.166;18.908;2023-12-29T15:44:54;97669.69;;;7.84;68.72
21401;BME280;18038;50.166;18.908;2023-12-29T15:48:06;97669.88;;;7.82;69.18
21401;BME280;18038;50.166;18.908;2023-12-29T15:51:16;97667.03;;;7.84;68.77
21401;BME280;18038;50.166;18.908;2023-12-29T15:54:23;97678.50;;;7.76;69.04
21401;BME280;18038;50.166;18.908;2023-12-29T15:57:33;97679.34;;;7.77;69.43
21401;BME280;18038;50.166;18.908;2023-12-29T16:00:44;97673.22;;;7.76;69.66
21401;BME280;18038;50.166;18.908;2023-12-29T16:03:55;97674.22;;;7.75;69.37
21401;BME280;18038;50.166;18.908;2023-12-29T16:07:03;97680.81;;;7.79;69.69
21401;BME280;18038;50.166;18.908;2023-12-29T16:10:11;97676.16;;;7.81;69.06
21401;BME280;18038;50.166;18.908;2023-12-29T16:13:19;97671.53;;;7.83;69.09
21401;BME280;18038;50.166;18.908;2023-12-29T16:16:27;97667.53;;;7.88;69.28
21401;BME280;18038;50.166;18.908;2023-12-29T16:19:37;97670.84;;;7.81;69.32
21401;BME280;18038;50.166;18.908;2023-12-29T16:23:08;97672.53;;;7.82;69.11
21401;BME280;18038;50.166;18.908;2023-12-29T16:26:15;97661.63;;;7.77;69.05
21401;BME280;18038;50.166;18.908;2023-12-29T16:29:40;97654.00;;;7.74;69.28
21401;BME280;18038;50.166;18.908;2023-12-29T16:32:47;97653.16;;;7.74;69.77
21401;BME280;18038;50.166;18.908;2023-12-29T16:35:58;97644.41;;;7.73;69.65
21401;BME280;18038;50.166;18.908;2023-12-29T16:39:07;97649.00;;;7.79;69.52
21401;BME280;18038;50.166;18.908;2023-12-29T16:42:15;97652.13;;;7.83;69.56
21401;BME280;18038;50.166;18.908;2023-12-29T16:45:23;97650.31;;;7.83;69.35
21401;BME280;18038;50.166;18.908;2023-12-29T16:48:33;97654.78;;;7.83;69.87
21401;BME280;18038;50.166;18.908;2023-12-29T16:51:43;97655.25;;;7.87;69.87
21401;BME280;18038;50.166;18.908;2023-12-29T16:54:51;97653.63;;;7.86;69.80
21401;BME280;18038;50.166;18.908;2023-12-29T16:57:58;97652.09;;;7.91;69.83
21401;BME280;18038;50.166;18.908;2023-12-29T17:01:07;97652.25;;;7.90;69.90